sensor_id;sensor_type;location;lat;lon;timestamp;P1;durP1;ratioP1;P2;durP2;ratioP2
51746;SDS011;37825;40.088;18.302;2023-02-21T00:01:57;54.00;;;40.20;;
51746;SDS011;37825;40.088;18.302;2023-02-21T00:04:45;52.63;;;39.30;;
51746;SDS011;37825;40.088;18.302;2023-02-21T00:07:32;52.13;;;39.23;;
51746;SDS011;37825;40.088;18.302;2023-02-21T00:10:19;58.77;;;41.90;;
51746;SDS011;37825;40.088;18.302;2023-02-21T00:13:06;56.03;;;40.90;;
51746;SDS011;37825;40.088;18.302;2023-02-21T00:15:52;54.93;;;39.93;;
51746;SDS011;37825;40.088;18.302;2023-02-21T00:18:39;57.40;;;43.33;;
51746;SDS011;37825;40.088;18.302;2023-02-21T00:21:27;56.30;;;41.90;;
51746;SDS011;37825;40.088;18.302;2023-02-21T00:24:16;62.67;;;43.47;;
51746;SDS011;37825;40.088;18.302;2023-02-21T00:27:05;128.73;;;43.97;;
51746;SDS011;37825;40.088;18.302;2023-02-21T00:29:52;200.07;;;39.10;;
51746;SDS011;37825;40.088;18.302;2023-02-21T00:32:38;197.23;;;43.80;;
51746;SDS011;37825;40.088;18.302;2023-02-21T00:35:26;171.60;;;41.43;;
51746;SDS011;37825;40.088;18.302;2023-02-21T00:38:12;292.67;;;52.03;;
51746;SDS011;37825;40.088;18.302;2023-02-21T00:40:59;174.40;;;48.07;;
51746;SDS011;37825;40.088;18.302;2023-02-21T00:43:46;218.70;;;45.70;;
51746;SDS011;37825;40.088;18.302;2023-02-21T00:46:33;141.93;;;40.97;;
51746;SDS011;37825;40.088;18.302;2023-02-21T00:49:21;105.10;;;38.10;;
51746;SDS011;37825;40.088;18.302;2023-02-21T00:52:08;85.70;;;33.53;;
51746;SDS011;37825;40.088;18.302;2023-02-21T00:54:55;73.33;;;35.17;;
51746;SDS011;37825;40.088;18.302;2023-02-21T00:57:42;62.90;;;33.37;;
51746;SDS011;37825;40.088;18.302;2023-02-21T01:00:29;145.70;;;40.47;;
51746;SDS011;37825;40.088;18.302;2023-02-21T01:03:16;161.30;;;40.43;;
51746;SDS011;37825;40.088;18.302;2023-02-21T01:06:07;121.47;;;39.17;;
51746;SDS011;37825;40.088;18.302;2023-02-21T01:08:54;123.78;;;37.95;;
51746;SDS011;37825;40.088;18.302;2023-02-21T01:11:40;195.10;;;34.93;;
51746;SDS011;37825;40.088;18.302;2023-02-21T01:14:27;411.30;;;45.93;;
51746;SDS011;37825;40.088;18.302;2023-02-21T01:17:14;283.50;;;39.60;;
51746;SDS011;37825;40.088;18.302;2023-02-21T01:20:01;345.83;;;49.67;;
51746;SDS011;37825;40.088;18.302;2023-02-21T01:22:48;201.47;;;35.17;;
51746;SDS011;37825;40.088;18.302;2023-02-21T01:25:34;195.13;;;33.70;;
51746;SDS011;37825;40.088;18.302;2023-02-21T01:28:21;175.20;;;31.80;;
51746;SDS011;37825;40.088;18.302;2023-02-21T01:31:09;483.07;;;53.13;;
51746;SDS011;37825;40.088;18.302;2023-02-21T01:33:56;427.63;;;50.17;;
51746;SDS011;37825;40.088;18.302;2023-02-21T01:36:43;258.20;;;40.67;;
51746;SDS011;37825;40.088;18.302;2023-02-21T01:39:30;310.63;;;46.43;;
51746;SDS011;37825;40.088;18.302;2023-02-21T01:42:17;149.90;;;37.03;;
51746;SDS011;37825;40.088;18.302;2023-02-21T01:48:07;384.53;;;51.27;;
51746;SDS011;37825;40.088;18.302;2023-02-21T01:50:56;279.73;;;45.63;;
51746;SDS011;37825;40.088;18.302;2023-02-21T01:53:44;235.63;;;41.83;;
51746;SDS011;37825;40.088;18.302;2023-02-21T01:56:31;229.53;;;43.10;;
51746;SDS011;37825;40.088;18.302;2023-02-21T01:59:19;202.97;;;36.77;;
51746;SDS011;37825;40.088;18.302;2023-02-21T02:05:07;282.37;;;43.23;;
51746;SDS011;37825;40.088;18.302;2023-02-21T02:07:55;255.00;;;42.30;;
51746;SDS011;37825;40.088;18.302;2023-02-21T02:10:43;227.07;;;35.03;;
51746;SDS011;37825;40.088;18.302;2023-02-21T02:18:39;172.97;;;35.93;;
51746;SDS011;37825;40.088;18.302;2023-02-21T02:21:25;196.80;;;34.23;;
51746;SDS011;37825;40.088;18.302;2023-02-21T02:31:56;242.60;;;41.07;;
51746;SDS011;37825;40.088;18.302;2023-02-21T02:37:41;294.03;;;40.03;;
51746;SDS011;37825;40.088;18.302;2023-02-21T02:39:52;255.70;;;32.13;;
51746;SDS011;37825;40.088;18.302;2023-02-21T02:44:52;201.70;;;32.00;;
51746;SDS011;37825;40.088;18.302;2023-02-21T02:47:34;177.13;;;30.20;;
51746;SDS011;37825;40.088;18.302;2023-02-21T02:50:05;117.50;;;24.90;;
51746;SDS011;37825;40.088;18.302;2023-02-21T02:52:34;74.00;;;19.87;;
51746;SDS011;37825;40.088;18.302;2023-02-21T02:55:04;124.63;;;25.67;;
51746;SDS011;37825;40.088;18.302;2023-02-21T02:57:48;126.47;;;25.63;;
51746;SDS011;37825;40.088;18.302;2023-02-21T03:00:18;116.00;;;26.87;;
51746;SDS011;37825;40.088;18.302;2023-02-21T03:03:00;149.17;;;31.60;;
51746;SDS011;37825;40.088;18.302;2023-02-21T03:05:37;203.63;;;45.77;;
51746;SDS011;37825;40.088;18.302;2023-02-21T03:10:45;183.53;;;46.23;;
51746;SDS011;37825;40.088;18.302;2023-02-21T03:21:20;73.90;;;18.60;;
51746;SDS011;37825;40.088;18.302;2023-02-21T03:23:51;105.50;;;23.13;;
51746;SDS011;37825;40.088;18.302;2023-02-21T03:26:21;72.80;;;18.63;;
51746;SDS011;37825;40.088;18.302;2023-02-21T03:28:54;112.97;;;21.43;;
51746;SDS011;37825;40.088;18.302;2023-02-21T03:31:25;77.67;;;18.73;;
51746;SDS011;37825;40.088;18.302;2023-02-21T03:33:57;129.73;;;25.00;;
51746;SDS011;37825;40.088;18.302;2023-02-21T03:36:27;121.30;;;22.07;;
51746;SDS011;37825;40.088;18.302;2023-02-21T03:38:55;151.13;;;23.17;;
51746;SDS011;37825;40.088;18.302;2023-02-21T03:41:24;158.90;;;24.37;;
51746;SDS011;37825;40.088;18.302;2023-02-21T03:43:52;222.93;;;31.00;;
51746;SDS011;37825;40.088;18.302;2023-02-21T03:46:20;182.67;;;27.00;;
51746;SDS011;37825;40.088;18.302;2023-02-21T03:48:49;117.87;;;23.57;;
51746;SDS011;37825;40.088;18.302;2023-02-21T03:51:24;144.83;;;24.80;;
51746;SDS011;37825;40.088;18.302;2023-02-21T03:53:53;106.17;;;21.77;;
51746;SDS011;37825;40.088;18.302;2023-02-21T03:56:27;158.27;;;27.80;;
51746;SDS011;37825;40.088;18.302;2023-02-21T03:59:22;155.30;;;27.17;;
51746;SDS011;37825;40.088;18.302;2023-02-21T04:01:51;121.77;;;24.97;;
51746;SDS011;37825;40.088;18.302;2023-02-21T04:04:20;125.07;;;28.07;;
51746;SDS011;37825;40.088;18.302;2023-02-21T04:06:57;113.07;;;26.60;;
51746;SDS011;37825;40.088;18.302;2023-02-21T04:09:26;191.50;;;32.27;;
51746;SDS011;37825;40.088;18.302;2023-02-21T04:11:54;119.40;;;26.17;;
51746;SDS011;37825;40.088;18.302;2023-02-21T04:14:23;167.23;;;30.33;;
51746;SDS011;37825;40.088;18.302;2023-02-21T04:16:53;150.97;;;30.07;;
51746;SDS011;37825;40.088;18.302;2023-02-21T04:19:22;180.93;;;33.73;;
51746;SDS011;37825;40.088;18.302;2023-02-21T04:21:50;114.93;;;26.60;;
51746;SDS011;37825;40.088;18.302;2023-02-21T04:24:18;155.57;;;30.77;;
51746;SDS011;37825;40.088;18.302;2023-02-21T04:26:47;175.93;;;28.00;;
51746;SDS011;37825;40.088;18.302;2023-02-21T04:29:16;144.73;;;26.40;;
51746;SDS011;37825;40.088;18.302;2023-02-21T04:31:44;174.30;;;25.97;;
51746;SDS011;37825;40.088;18.302;2023-02-21T04:34:15;211.10;;;27.88;;
51746;SDS011;37825;40.088;18.302;2023-02-21T04:36:44;102.27;;;20.63;;
51746;SDS011;37825;40.088;18.302;2023-02-21T04:39:13;92.13;;;22.13;;
51746;SDS011;37825;40.088;18.302;2023-02-21T04:41:41;137.13;;;28.73;;
51746;SDS011;37825;40.088;18.302;2023-02-21T04:44:10;105.93;;;25.10;;
51746;SDS011;37825;40.088;18.302;2023-02-21T04:46:39;117.90;;;23.80;;
51746;SDS011;37825;40.088;18.302;2023-02-21T04:49:08;126.27;;;22.67;;
51746;SDS011;37825;40.088;18.302;2023-02-21T04:51:37;100.70;;;22.13;;
51746;SDS011;37825;40.088;18.302;2023-02-21T04:54:05;73.23;;;20.10;;
51746;SDS011;37825;40.088;18.302;2023-02-21T04:56:35;74.60;;;20.73;;
51746;SDS011;37825;40.088;18.302;2023-02-21T04:59:04;118.53;;;22.40;;
51746;SDS011;37825;40.088;18.302;2023-02-21T05:01:32;74.43;;;20.70;;
51746;SDS011;37825;40.088;18.302;2023-02-21T05:04:01;92.37;;;21.97;;
51746;SDS011;37825;40.088;18.302;2023-02-21T05:06:30;59.77;;;20.13;;
51746;SDS011;37825;40.088;18.302;2023-02-21T05:08:59;93.07;;;20.97;;
51746;SDS011;37825;40.088;18.302;2023-02-21T05:11:27;89.77;;;20.60;;
51746;SDS011;37825;40.088;18.302;2023-02-21T05:13:55;126.67;;;20.70;;
51746;SDS011;37825;40.088;18.302;2023-02-21T05:16:23;178.80;;;27.73;;
51746;SDS011;37825;40.088;18.302;2023-02-21T05:18:51;118.10;;;23.43;;
51746;SDS011;37825;40.088;18.302;2023-02-21T05:21:20;133.23;;;24.13;;
51746;SDS011;37825;40.088;18.302;2023-02-21T05:23:48;181.43;;;26.83;;
51746;SDS011;37825;40.088;18.302;2023-02-21T05:26:25;122.50;;;22.10;;
51746;SDS011;37825;40.088;18.302;2023-02-21T05:28:53;190.10;;;26.33;;
51746;SDS011;37825;40.088;18.302;2023-02-21T05:31:22;95.80;;;22.27;;
51746;SDS011;37825;40.088;18.302;2023-02-21T05:33:51;107.57;;;23.37;;
51746;SDS011;37825;40.088;18.302;2023-02-21T05:36:20;100.93;;;23.37;;
51746;SDS011;37825;40.088;18.302;2023-02-21T05:38:51;81.13;;;21.93;;
51746;SDS011;37825;40.088;18.302;2023-02-21T05:41:20;97.70;;;22.43;;
51746;SDS011;37825;40.088;18.302;2023-02-21T05:43:49;79.40;;;20.53;;
51746;SDS011;37825;40.088;18.302;2023-02-21T05:48:45;184.73;;;27.00;;
51746;SDS011;37825;40.088;18.302;2023-02-21T05:51:14;159.90;;;24.93;;
51746;SDS011;37825;40.088;18.302;2023-02-21T05:53:43;205.30;;;32.67;;
51746;SDS011;37825;40.088;18.302;2023-02-21T05:56:11;155.73;;;33.87;;
51746;SDS011;37825;40.088;18.302;2023-02-21T05:58:40;225.10;;;37.53;;
51746;SDS011;37825;40.088;18.302;2023-02-21T06:01:08;197.47;;;39.43;;
51746;SDS011;37825;40.088;18.302;2023-02-21T06:03:37;237.80;;;40.73;;
51746;SDS011;37825;40.088;18.302;2023-02-21T06:06:05;114.37;;;28.93;;
51746;SDS011;37825;40.088;18.302;2023-02-21T06:08:46;95.00;;;26.67;;
51746;SDS011;37825;40.088;18.302;2023-02-21T06:11:21;78.32;;;24.77;;
51746;SDS011;37825;40.088;18.302;2023-02-21T06:13:51;74.00;;;23.10;;
51746;SDS011;37825;40.088;18.302;2023-02-21T06:16:20;123.90;;;29.13;;
51746;SDS011;37825;40.088;18.302;2023-02-21T06:18:49;81.33;;;30.33;;
51746;SDS011;37825;40.088;18.302;2023-02-21T06:21:17;75.27;;;25.37;;
51746;SDS011;37825;40.088;18.302;2023-02-21T06:23:46;89.77;;;24.80;;
51746;SDS011;37825;40.088;18.302;2023-02-21T06:26:17;87.63;;;30.47;;
51746;SDS011;37825;40.088;18.302;2023-02-21T06:28:46;71.47;;;29.37;;
51746;SDS011;37825;40.088;18.302;2023-02-21T06:31:15;94.67;;;30.87;;
51746;SDS011;37825;40.088;18.302;2023-02-21T06:33:44;71.00;;;25.37;;
51746;SDS011;37825;40.088;18.302;2023-02-21T06:36:13;89.60;;;33.70;;
51746;SDS011;37825;40.088;18.302;2023-02-21T06:38:46;114.40;;;46.50;;
51746;SDS011;37825;40.088;18.302;2023-02-21T06:41:20;54.53;;;20.57;;
51746;SDS011;37825;40.088;18.302;2023-02-21T06:43:52;114.73;;;34.23;;
51746;SDS011;37825;40.088;18.302;2023-02-21T06:46:23;103.20;;;33.87;;
51746;SDS011;37825;40.088;18.302;2023-02-21T06:48:51;96.90;;;28.33;;
51746;SDS011;37825;40.088;18.302;2023-02-21T06:51:20;103.00;;;24.70;;
51746;SDS011;37825;40.088;18.302;2023-02-21T06:53:55;78.47;;;29.07;;
51746;SDS011;37825;40.088;18.302;2023-02-21T06:56:24;85.17;;;32.30;;
51746;SDS011;37825;40.088;18.302;2023-02-21T06:58:53;72.43;;;33.83;;
51746;SDS011;37825;40.088;18.302;2023-02-21T07:01:23;55.53;;;29.90;;
51746;SDS011;37825;40.088;18.302;2023-02-21T07:03:51;46.53;;;28.23;;
51746;SDS011;37825;40.088;18.302;2023-02-21T07:06:20;52.60;;;29.60;;
51746;SDS011;37825;40.088;18.302;2023-02-21T07:08:49;60.83;;;35.43;;
51746;SDS011;37825;40.088;18.302;2023-02-21T07:11:17;63.93;;;35.63;;
51746;SDS011;37825;40.088;18.302;2023-02-21T07:13:46;52.43;;;30.33;;
51746;SDS011;37825;40.088;18.302;2023-02-21T07:16:17;49.08;;;29.27;;
51746;SDS011;37825;40.088;18.302;2023-02-21T07:18:46;58.17;;;37.10;;
51746;SDS011;37825;40.088;18.302;2023-02-21T07:21:14;54.13;;;35.23;;
51746;SDS011;37825;40.088;18.302;2023-02-21T07:23:43;38.70;;;25.33;;
51746;SDS011;37825;40.088;18.302;2023-02-21T07:26:12;33.70;;;21.20;;
51746;SDS011;37825;40.088;18.302;2023-02-21T07:28:41;42.70;;;26.47;;
51746;SDS011;37825;40.088;18.302;2023-02-21T07:31:10;64.27;;;41.50;;
51746;SDS011;37825;40.088;18.302;2023-02-21T07:33:39;68.90;;;48.00;;
51746;SDS011;37825;40.088;18.302;2023-02-21T07:36:07;82.60;;;58.53;;
51746;SDS011;37825;40.088;18.302;2023-02-21T07:38:36;100.73;;;71.83;;
51746;SDS011;37825;40.088;18.302;2023-02-21T07:41:04;67.77;;;50.67;;
51746;SDS011;37825;40.088;18.302;2023-02-21T07:43:33;69.47;;;51.03;;
51746;SDS011;37825;40.088;18.302;2023-02-21T07:46:02;50.93;;;35.10;;
51746;SDS011;37825;40.088;18.302;2023-02-21T07:48:30;43.90;;;33.23;;
51746;SDS011;37825;40.088;18.302;2023-02-21T07:50:58;54.37;;;39.73;;
51746;SDS011;37825;40.088;18.302;2023-02-21T07:53:27;50.75;;;37.67;;
51746;SDS011;37825;40.088;18.302;2023-02-21T07:55:55;46.90;;;35.17;;
51746;SDS011;37825;40.088;18.302;2023-02-21T07:58:24;37.85;;;30.58;;
51746;SDS011;37825;40.088;18.302;2023-02-21T08:00:52;41.70;;;32.58;;
51746;SDS011;37825;40.088;18.302;2023-02-21T08:03:21;38.70;;;28.73;;
51746;SDS011;37825;40.088;18.302;2023-02-21T08:05:49;41.80;;;33.97;;
51746;SDS011;37825;40.088;18.302;2023-02-21T08:08:18;34.13;;;29.67;;
51746;SDS011;37825;40.088;18.302;2023-02-21T08:10:47;41.25;;;31.08;;
51746;SDS011;37825;40.088;18.302;2023-02-21T08:13:15;29.52;;;26.20;;
51746;SDS011;37825;40.088;18.302;2023-02-21T08:15:44;29.73;;;24.13;;
51746;SDS011;37825;40.088;18.302;2023-02-21T08:18:19;25.58;;;22.90;;
51746;SDS011;37825;40.088;18.302;2023-02-21T08:20:50;25.98;;;21.20;;
51746;SDS011;37825;40.088;18.302;2023-02-21T08:23:19;28.63;;;21.98;;
51746;SDS011;37825;40.088;18.302;2023-02-21T08:25:48;23.67;;;21.33;;
51746;SDS011;37825;40.088;18.302;2023-02-21T08:28:16;16.52;;;14.93;;
51746;SDS011;37825;40.088;18.302;2023-02-21T08:30:44;20.80;;;18.58;;
51746;SDS011;37825;40.088;18.302;2023-02-21T08:33:13;17.98;;;16.08;;
51746;SDS011;37825;40.088;18.302;2023-02-21T08:35:41;21.88;;;16.40;;
51746;SDS011;37825;40.088;18.302;2023-02-21T08:38:09;18.23;;;15.32;;
51746;SDS011;37825;40.088;18.302;2023-02-21T08:40:38;14.80;;;13.30;;
51746;SDS011;37825;40.088;18.302;2023-02-21T08:43:06;14.02;;;12.48;;
51746;SDS011;37825;40.088;18.302;2023-02-21T08:45:34;15.73;;;13.73;;
51746;SDS011;37825;40.088;18.302;2023-02-21T08:48:03;22.15;;;18.40;;
51746;SDS011;37825;40.088;18.302;2023-02-21T08:50:31;16.25;;;14.63;;
51746;SDS011;37825;40.088;18.302;2023-02-21T08:53:00;12.48;;;11.25;;
51746;SDS011;37825;40.088;18.302;2023-02-21T08:55:28;11.52;;;8.88;;
51746;SDS011;37825;40.088;18.302;2023-02-21T08:57:56;9.00;;;7.32;;
51746;SDS011;37825;40.088;18.302;2023-02-21T09:00:24;9.80;;;8.85;;
51746;SDS011;37825;40.088;18.302;2023-02-21T09:02:55;10.60;;;9.57;;
51746;SDS011;37825;40.088;18.302;2023-02-21T09:05:25;14.85;;;10.55;;
51746;SDS011;37825;40.088;18.302;2023-02-21T09:07:54;10.82;;;9.80;;
51746;SDS011;37825;40.088;18.302;2023-02-21T09:10:25;10.60;;;9.60;;
51746;SDS011;37825;40.088;18.302;2023-02-21T09:12:54;11.80;;;9.82;;
51746;SDS011;37825;40.088;18.302;2023-02-21T09:15:23;27.08;;;21.42;;
51746;SDS011;37825;40.088;18.302;2023-02-21T09:17:51;18.45;;;12.95;;
51746;SDS011;37825;40.088;18.302;2023-02-21T09:20:21;17.05;;;15.45;;
51746;SDS011;37825;40.088;18.302;2023-02-21T09:22:50;17.10;;;14.07;;
51746;SDS011;37825;40.088;18.302;2023-02-21T09:25:20;14.27;;;12.77;;
51746;SDS011;37825;40.088;18.302;2023-02-21T09:27:51;11.70;;;10.32;;
51746;SDS011;37825;40.088;18.302;2023-02-21T09:30:21;11.48;;;10.27;;
51746;SDS011;37825;40.088;18.302;2023-02-21T09:32:52;20.00;;;17.88;;
51746;SDS011;37825;40.088;18.302;2023-02-21T09:35:21;13.57;;;12.02;;
51746;SDS011;37825;40.088;18.302;2023-02-21T09:37:49;11.23;;;8.90;;
51746;SDS011;37825;40.088;18.302;2023-02-21T09:43:07;7.95;;;7.15;;
51746;SDS011;37825;40.088;18.302;2023-02-21T09:45:38;9.98;;;7.43;;
51746;SDS011;37825;40.088;18.302;2023-02-21T09:48:11;7.82;;;7.00;;
51746;SDS011;37825;40.088;18.302;2023-02-21T09:50:43;9.25;;;7.45;;
51746;SDS011;37825;40.088;18.302;2023-02-21T09:53:13;6.97;;;6.30;;
51746;SDS011;37825;40.088;18.302;2023-02-21T09:55:44;7.32;;;6.55;;
51746;SDS011;37825;40.088;18.302;2023-02-21T09:58:13;10.77;;;8.13;;
51746;SDS011;37825;40.088;18.302;2023-02-21T10:00:42;9.60;;;8.35;;
51746;SDS011;37825;40.088;18.302;2023-02-21T10:13:45;6.65;;;6.03;;
51746;SDS011;37825;40.088;18.302;2023-02-21T10:21:19;7.10;;;6.40;;
51746;SDS011;37825;40.088;18.302;2023-02-21T10:23:49;6.78;;;5.38;;
51746;SDS011;37825;40.088;18.302;2023-02-21T10:26:24;5.90;;;5.30;;
51746;SDS011;37825;40.088;18.302;2023-02-21T10:28:53;6.25;;;5.70;;
51746;SDS011;37825;40.088;18.302;2023-02-21T10:31:30;5.80;;;5.22;;
51746;SDS011;37825;40.088;18.302;2023-02-21T10:33:59;5.70;;;5.13;;
51746;SDS011;37825;40.088;18.302;2023-02-21T10:36:27;6.00;;;5.25;;
51746;SDS011;37825;40.088;18.302;2023-02-21T10:38:57;7.22;;;5.75;;
51746;SDS011;37825;40.088;18.302;2023-02-21T10:41:26;10.07;;;5.40;;
51746;SDS011;37825;40.088;18.302;2023-02-21T10:44:06;5.28;;;4.65;;
51746;SDS011;37825;40.088;18.302;2023-02-21T10:46:41;5.18;;;4.70;;
51746;SDS011;37825;40.088;18.302;2023-02-21T10:52:05;6.80;;;6.20;;
51746;SDS011;37825;40.088;18.302;2023-02-21T10:54:36;6.45;;;5.78;;
51746;SDS011;37825;40.088;18.302;2023-02-21T10:57:09;7.25;;;6.00;;
51746;SDS011;37825;40.088;18.302;2023-02-21T10:59:41;7.75;;;7.05;;
51746;SDS011;37825;40.088;18.302;2023-02-21T11:02:30;6.18;;;5.57;;
51746;SDS011;37825;40.088;18.302;2023-02-21T11:07:37;6.85;;;5.18;;
51746;SDS011;37825;40.088;18.302;2023-02-21T11:16:11;8.00;;;6.35;;
51746;SDS011;37825;40.088;18.302;2023-02-21T11:18:42;8.30;;;6.20;;
51746;SDS011;37825;40.088;18.302;2023-02-21T11:21:17;6.95;;;5.78;;
51746;SDS011;37825;40.088;18.302;2023-02-21T11:26:15;8.18;;;6.47;;
51746;SDS011;37825;40.088;18.302;2023-02-21T11:28:44;7.05;;;5.63;;
51746;SDS011;37825;40.088;18.302;2023-02-21T11:31:15;6.82;;;5.78;;
51746;SDS011;37825;40.088;18.302;2023-02-21T11:36:19;6.20;;;5.38;;
51746;SDS011;37825;40.088;18.302;2023-02-21T11:43:56;6.50;;;5.43;;
51746;SDS011;37825;40.088;18.302;2023-02-21T11:54:05;6.75;;;6.05;;
51746;SDS011;37825;40.088;18.302;2023-02-21T12:18:13;5.90;;;5.40;;
51746;SDS011;37825;40.088;18.302;2023-02-21T12:28:23;10.90;;;9.68;;
51746;SDS011;37825;40.088;18.302;2023-02-21T12:41:59;7.15;;;6.45;;
51746;SDS011;37825;40.088;18.302;2023-02-21T12:47:23;13.55;;;12.18;;
51746;SDS011;37825;40.088;18.302;2023-02-21T12:50:05;17.63;;;13.75;;
51746;SDS011;37825;40.088;18.302;2023-02-21T12:55:15;8.82;;;6.88;;
51746;SDS011;37825;40.088;18.302;2023-02-21T13:05:53;7.28;;;6.28;;
51746;SDS011;37825;40.088;18.302;2023-02-21T13:10:57;33.00;;;29.73;;
51746;SDS011;37825;40.088;18.302;2023-02-21T13:13:29;21.40;;;19.30;;
51746;SDS011;37825;40.088;18.302;2023-02-21T13:16:06;11.35;;;10.25;;
51746;SDS011;37825;40.088;18.302;2023-02-21T13:21:46;20.00;;;18.05;;
51746;SDS011;37825;40.088;18.302;2023-02-21T13:24:32;10.00;;;9.00;;
51746;SDS011;37825;40.088;18.302;2023-02-21T13:29:50;14.05;;;12.70;;
51746;SDS011;37825;40.088;18.302;2023-02-21T13:32:18;9.55;;;8.02;;
51746;SDS011;37825;40.088;18.302;2023-02-21T13:37:18;17.38;;;13.98;;
51746;SDS011;37825;40.088;18.302;2023-02-21T13:39:57;37.20;;;33.47;;
51746;SDS011;37825;40.088;18.302;2023-02-21T13:42:31;9.85;;;7.90;;
51746;SDS011;37825;40.088;18.302;2023-02-21T13:47:29;11.60;;;10.20;;
51746;SDS011;37825;40.088;18.302;2023-02-21T13:55:35;7.88;;;6.43;;
51746;SDS011;37825;40.088;18.302;2023-02-21T14:08:41;14.63;;;13.15;;
51746;SDS011;37825;40.088;18.302;2023-02-21T14:11:19;9.73;;;8.73;;
51746;SDS011;37825;40.088;18.302;2023-02-21T14:13:54;16.73;;;15.07;;
51746;SDS011;37825;40.088;18.302;2023-02-21T14:19:34;14.90;;;13.50;;
51746;SDS011;37825;40.088;18.302;2023-02-21T14:22:03;20.45;;;17.58;;
51746;SDS011;37825;40.088;18.302;2023-02-21T14:24:34;19.08;;;17.17;;
51746;SDS011;37825;40.088;18.302;2023-02-21T14:27:04;15.27;;;13.90;;
51746;SDS011;37825;40.088;18.302;2023-02-21T14:30:13;14.95;;;13.50;;
51746;SDS011;37825;40.088;18.302;2023-02-21T14:32:42;24.10;;;21.63;;
51746;SDS011;37825;40.088;18.302;2023-02-21T14:43:00;9.50;;;8.50;;
51746;SDS011;37825;40.088;18.302;2023-02-21T14:45:43;12.82;;;10.57;;
51746;SDS011;37825;40.088;18.302;2023-02-21T14:51:06;39.28;;;35.42;;
51746;SDS011;37825;40.088;18.302;2023-02-21T14:58:45;16.60;;;14.90;;
51746;SDS011;37825;40.088;18.302;2023-02-21T15:02:04;18.65;;;16.55;;
51746;SDS011;37825;40.088;18.302;2023-02-21T15:04:53;8.10;;;7.30;;
51746;SDS011;37825;40.088;18.302;2023-02-21T15:10:03;13.98;;;12.50;;
51746;SDS011;37825;40.088;18.302;2023-02-21T15:12:38;8.85;;;8.00;;
51746;SDS011;37825;40.088;18.302;2023-02-21T15:15:13;8.32;;;7.30;;
51746;SDS011;37825;40.088;18.302;2023-02-21T15:17:42;8.40;;;7.60;;
51746;SDS011;37825;40.088;18.302;2023-02-21T15:20:15;13.40;;;12.10;;
51746;SDS011;37825;40.088;18.302;2023-02-21T15:22:44;13.13;;;11.82;;
51746;SDS011;37825;40.088;18.302;2023-02-21T15:25:13;10.38;;;9.30;;
51746;SDS011;37825;40.088;18.302;2023-02-21T15:30:18;9.77;;;8.88;;
51746;SDS011;37825;40.088;18.302;2023-02-21T15:32:58;10.82;;;8.77;;
51746;SDS011;37825;40.088;18.302;2023-02-21T15:35:36;35.53;;;31.67;;
51746;SDS011;37825;40.088;18.302;2023-02-21T15:38:08;24.33;;;21.70;;
51746;SDS011;37825;40.088;18.302;2023-02-21T15:40:38;11.77;;;10.52;;
51746;SDS011;37825;40.088;18.302;2023-02-21T15:43:06;16.75;;;14.80;;
51746;SDS011;37825;40.088;18.302;2023-02-21T15:45:39;15.98;;;14.38;;
51746;SDS011;37825;40.088;18.302;2023-02-21T15:48:10;13.63;;;12.23;;
51746;SDS011;37825;40.088;18.302;2023-02-21T15:50:42;16.13;;;14.43;;
51746;SDS011;37825;40.088;18.302;2023-02-21T15:53:14;12.98;;;9.25;;
51746;SDS011;37825;40.088;18.302;2023-02-21T15:55:43;18.57;;;16.87;;
51746;SDS011;37825;40.088;18.302;2023-02-21T16:00:47;16.08;;;14.50;;
51746;SDS011;37825;40.088;18.302;2023-02-21T16:11:25;10.85;;;9.75;;
51746;SDS011;37825;40.088;18.302;2023-02-21T16:13:54;20.52;;;17.67;;
51746;SDS011;37825;40.088;18.302;2023-02-21T16:16:23;12.80;;;9.50;;
51746;SDS011;37825;40.088;18.302;2023-02-21T16:18:55;38.00;;;32.33;;
51746;SDS011;37825;40.088;18.302;2023-02-21T16:21:25;65.93;;;51.40;;
51746;SDS011;37825;40.088;18.302;2023-02-21T16:23:54;47.15;;;34.08;;
51746;SDS011;37825;40.088;18.302;2023-02-21T16:26:24;11.07;;;9.77;;
51746;SDS011;37825;40.088;18.302;2023-02-21T16:28:56;17.65;;;15.70;;
51746;SDS011;37825;40.088;18.302;2023-02-21T16:31:30;20.40;;;16.95;;
51746;SDS011;37825;40.088;18.302;2023-02-21T16:33:58;15.30;;;12.05;;
51746;SDS011;37825;40.088;18.302;2023-02-21T16:36:28;22.85;;;15.98;;
51746;SDS011;37825;40.088;18.302;2023-02-21T16:38:57;11.60;;;9.38;;
51746;SDS011;37825;40.088;18.302;2023-02-21T16:41:25;13.38;;;9.63;;
51746;SDS011;37825;40.088;18.302;2023-02-21T16:43:54;27.15;;;19.63;;
51746;SDS011;37825;40.088;18.302;2023-02-21T16:46:23;20.35;;;17.55;;
51746;SDS011;37825;40.088;18.302;2023-02-21T16:48:55;40.80;;;29.63;;
51746;SDS011;37825;40.088;18.302;2023-02-21T16:51:23;28.52;;;23.50;;
51746;SDS011;37825;40.088;18.302;2023-02-21T16:53:52;28.55;;;23.75;;
51746;SDS011;37825;40.088;18.302;2023-02-21T16:56:20;27.02;;;20.80;;
51746;SDS011;37825;40.088;18.302;2023-02-21T16:58:49;33.92;;;26.80;;
51746;SDS011;37825;40.088;18.302;2023-02-21T17:01:25;33.58;;;29.45;;
51746;SDS011;37825;40.088;18.302;2023-02-21T17:03:54;27.20;;;21.67;;
51746;SDS011;37825;40.088;18.302;2023-02-21T17:06:23;24.00;;;21.45;;
51746;SDS011;37825;40.088;18.302;2023-02-21T17:08:52;23.23;;;20.67;;
51746;SDS011;37825;40.088;18.302;2023-02-21T17:11:20;19.48;;;16.48;;
51746;SDS011;37825;40.088;18.302;2023-02-21T17:13:49;31.60;;;28.40;;
51746;SDS011;37825;40.088;18.302;2023-02-21T17:16:17;26.08;;;21.40;;
51746;SDS011;37825;40.088;18.302;2023-02-21T17:18:46;57.70;;;52.00;;
51746;SDS011;37825;40.088;18.302;2023-02-21T17:21:15;34.50;;;30.85;;
51746;SDS011;37825;40.088;18.302;2023-02-21T17:23:43;40.38;;;33.67;;
51746;SDS011;37825;40.088;18.302;2023-02-21T17:26:12;30.55;;;26.88;;
51746;SDS011;37825;40.088;18.302;2023-02-21T17:28:41;43.47;;;38.42;;
51746;SDS011;37825;40.088;18.302;2023-02-21T17:31:11;31.30;;;27.48;;
51746;SDS011;37825;40.088;18.302;2023-02-21T17:33:42;55.70;;;49.72;;
51746;SDS011;37825;40.088;18.302;2023-02-21T17:36:15;46.65;;;41.58;;
51746;SDS011;37825;40.088;18.302;2023-02-21T17:38:44;32.80;;;29.17;;
51746;SDS011;37825;40.088;18.302;2023-02-21T17:41:13;36.70;;;31.25;;
51746;SDS011;37825;40.088;18.302;2023-02-21T17:43:42;43.50;;;37.50;;
51746;SDS011;37825;40.088;18.302;2023-02-21T17:46:13;55.20;;;45.33;;
51746;SDS011;37825;40.088;18.302;2023-02-21T17:48:42;49.28;;;43.88;;
51746;SDS011;37825;40.088;18.302;2023-02-21T17:51:21;39.13;;;34.92;;
51746;SDS011;37825;40.088;18.302;2023-02-21T17:53:50;30.73;;;26.40;;
51746;SDS011;37825;40.088;18.302;2023-02-21T17:56:19;34.83;;;31.05;;
51746;SDS011;37825;40.088;18.302;2023-02-21T17:58:48;34.72;;;31.08;;
51746;SDS011;37825;40.088;18.302;2023-02-21T18:01:17;37.47;;;33.63;;
51746;SDS011;37825;40.088;18.302;2023-02-21T18:03:46;34.60;;;30.88;;
51746;SDS011;37825;40.088;18.302;2023-02-21T18:06:15;34.38;;;30.98;;